Portada
Imágenes satélite Pronóstico 10 díasClimaPredicción Marítima Ciclones Rayo AeropuertosFAQ Noticias Acerca
El tiempo : Europa África América del Norte América del Sur Asia Australia-Oceanía Otros
Idiomas Contacto

Cali, Colombia

Alfonso Bonilla Aragon

latitud: 03-33N, longitud: 076-23W, altitud: 961 m


METAR: SKCL 010000Z 01007KT 9999 FEW023 BKN300 25/19 A2988
TAF: SKCL 312300Z 0100/0124 03007KT 9999 FEW020 TX31/0119Z TN20/0111Z BECMG 0116/0118 34008KT SCT017TCU

Hora: 19:25 (00:25 UTC)

Observación

El informe se hizo hace 25 minutos, a las 00:00 UTC
Viento 7 kt del norte
Temperatura 25°C
Humedad 69%
Presión 1012 hPa
Visibilidad 10 km o más
Escasas nubes a una altura de 2300 ft
Cielo nuboso a una altura de 30000 ft

Cambiar las unidades

Pronóstico

El informe se hizo hace 1 hora y 25 minutos, a las 23:00 UTC
Pronóstico válido del 01 a las 00 UTC al 01 a las 24 UTC
Viento 7 kt del norte-noreste
Visibilidad 10 km o más
Escasas nubes a una altura de 2000 ft
Evolucionando progresivamente
del 01 a las 16 UTC al 01 a las 18 UTC
Viento 8 kt del norte-noroeste
Nubes dispersas a una altura de 1700 ft, Cumulus congestus.
La información que se ofrece en estas páginas está sujeta a una cláusula de exención de responsabilidad
El tiempo : Europa África América del Norte América del Sur Asia Australia-Oceanía Otros
Imágenes satélite Pronóstico 10 díasClimaPredicción Marítima Ciclones Rayo AeropuertosFAQ Idiomas Contacto Noticias Acerca